createdAt,value
2022-08-09T00:00:21.218Z,20.87
2022-08-09T00:02:49.989Z,20.82
2022-08-09T00:06:17.501Z,20.60
2022-08-09T00:08:31.651Z,20.71
2022-08-09T00:10:59.785Z,20.62
2022-08-09T00:13:28.068Z,20.46
2022-08-09T00:16:02.658Z,20.61
2022-08-09T00:18:34.772Z,20.66
2022-08-09T00:21:07.694Z,20.62
2022-08-09T00:23:54.986Z,20.59
2022-08-09T00:26:29.820Z,20.57
2022-08-09T00:29:00.907Z,20.54
2022-08-09T00:31:58.195Z,20.55
2022-08-09T00:34:19.299Z,20.58
2022-08-09T00:36:49.297Z,20.47
2022-08-09T00:40:13.597Z,20.44
2022-08-09T00:44:19.577Z,20.40
2022-08-09T00:44:53.760Z,20.45
2022-08-09T00:47:21.614Z,20.49
2022-08-09T00:49:56.509Z,20.39
2022-08-09T00:52:30.024Z,20.46
2022-08-09T00:54:59.158Z,20.28
2022-08-09T00:57:34.568Z,20.16
2022-08-09T01:00:21.247Z,20.36
2022-08-09T01:02:52.259Z,20.22
2022-08-09T01:05:51.740Z,20.28
2022-08-09T01:08:26.865Z,20.24
2022-08-09T01:11:02.387Z,20.21
2022-08-09T01:13:53.494Z,20.26
2022-08-09T01:16:23.419Z,20.21
2022-08-09T01:19:02.458Z,20.11
2022-08-09T01:21:44.956Z,20.13
2022-08-09T01:24:28.243Z,20.18
2022-08-09T01:27:01.811Z,20.11
2022-08-09T01:29:54.897Z,20.10
2022-08-09T01:32:32.514Z,20.08
2022-08-09T01:35:06.845Z,19.99
2022-08-09T01:38:06.340Z,19.95
2022-08-09T01:40:28.594Z,20.02
2022-08-09T01:42:58.363Z,19.98
2022-08-09T01:45:27.449Z,19.96
2022-08-09T01:47:57.445Z,20.03
2022-08-09T01:50:36.419Z,19.82
2022-08-09T01:53:19.484Z,19.70
2022-08-09T01:55:48.914Z,19.71
2022-08-09T01:58:18.404Z,19.77
2022-08-09T02:00:53.180Z,19.69
2022-08-09T02:03:21.506Z,19.72
2022-08-09T02:06:03.825Z,19.63
2022-08-09T02:08:57.948Z,19.66
2022-08-09T02:11:24.866Z,19.78
2022-08-09T02:14:14.946Z,19.69
2022-08-09T02:17:00.109Z,19.71
2022-08-09T02:19:35.002Z,19.67
2022-08-09T02:22:11.723Z,19.69
2022-08-09T02:24:40.277Z,19.61
2022-08-09T02:27:09.652Z,19.64
2022-08-09T02:29:44.113Z,19.58
2022-08-09T02:32:13.096Z,19.59
2022-08-09T02:34:51.818Z,19.65
2022-08-09T02:37:31.605Z,19.61
2022-08-09T02:40:10.354Z,19.57
2022-08-09T02:42:40.164Z,19.52
2022-08-09T02:45:16.248Z,19.49
2022-08-09T02:47:58.080Z,19.51
2022-08-09T02:50:29.916Z,19.49
2022-08-09T02:53:01.352Z,19.50
2022-08-09T02:55:46.097Z,19.46
2022-08-09T02:58:36.039Z,19.40
2022-08-09T03:01:07.979Z,19.47
2022-08-09T03:04:17.352Z,19.45
2022-08-09T03:06:27.394Z,19.41
2022-08-09T03:08:55.872Z,19.42
2022-08-09T03:11:29.964Z,19.40
2022-08-09T03:14:13.327Z,19.26
2022-08-09T03:16:47.548Z,19.34
2022-08-09T03:19:52.818Z,19.25
2022-08-09T03:22:05.956Z,19.24
2022-08-09T03:24:51.784Z,19.16
2022-08-09T03:27:21.626Z,19.24
2022-08-09T03:29:58.252Z,19.14
2022-08-09T03:32:31.399Z,19.02
2022-08-09T03:34:59.768Z,19.04
2022-08-09T03:37:56.707Z,19.09
2022-08-09T03:40:18.190Z,18.96
2022-08-09T03:42:46.648Z,18.96
2022-08-09T03:45:15.421Z,18.94
2022-08-09T03:47:46.703Z,18.93
2022-08-09T03:50:18.897Z,18.85
2022-08-09T03:52:56.267Z,18.82
2022-08-09T03:55:25.556Z,18.74
2022-08-09T03:58:03.658Z,18.74
2022-08-09T04:00:38.197Z,18.70
2022-08-09T04:03:08.158Z,18.73
2022-08-09T04:05:40.488Z,18.72
2022-08-09T04:08:08.476Z,18.64
2022-08-09T04:10:36.577Z,18.65
2022-08-09T04:13:12.903Z,18.58
2022-08-09T04:16:18.840Z,18.60
2022-08-09T04:18:35.826Z,18.62
2022-08-09T04:21:03.971Z,18.59
2022-08-09T04:23:31.779Z,18.72
2022-08-09T04:26:01.144Z,18.67
2022-08-09T04:28:31.362Z,18.59
2022-08-09T04:31:05.710Z,18.66
2022-08-09T04:33:47.589Z,18.68
2022-08-09T04:36:19.869Z,18.51
2022-08-09T04:38:47.652Z,18.54
2022-08-09T04:41:15.367Z,18.63
2022-08-09T04:43:53.846Z,18.71
2022-08-09T04:46:38.013Z,18.61
2022-08-09T04:49:22.347Z,18.53
2022-08-09T04:52:09.654Z,18.63
2022-08-09T04:54:37.717Z,18.69
2022-08-09T04:57:09.383Z,18.71
2022-08-09T04:59:39.997Z,18.72
2022-08-09T05:02:07.886Z,18.71
2022-08-09T05:04:37.471Z,18.62
2022-08-09T05:07:06.137Z,18.76
2022-08-09T05:09:45.566Z,18.71
2022-08-09T05:12:17.696Z,18.63
2022-08-09T05:14:46.266Z,18.71
2022-08-09T05:17:15.203Z,18.74
2022-08-09T05:20:02.948Z,18.75
2022-08-09T05:22:36.030Z,18.73
2022-08-09T05:25:18.516Z,18.79
2022-08-09T05:27:48.054Z,18.78
2022-08-09T05:30:17.622Z,18.84
2022-08-09T05:32:50.904Z,18.82
2022-08-09T05:35:22.419Z,18.97
2022-08-09T05:37:50.965Z,18.89
2022-08-09T05:40:19.768Z,18.90
2022-08-09T05:42:49.608Z,19.01
2022-08-09T05:45:17.518Z,18.99
2022-08-09T05:47:45.598Z,18.92
2022-08-09T05:50:44.008Z,19.16
2022-08-09T05:53:31.770Z,19.15
2022-08-09T05:55:59.880Z,19.26
2022-08-09T05:58:29.694Z,19.47
2022-08-09T06:00:58.244Z,19.40
2022-08-09T06:03:34.829Z,19.41
2022-08-09T06:06:14.003Z,19.55
2022-08-09T06:08:42.328Z,19.63
2022-08-09T06:11:17.591Z,19.85
2022-08-09T06:13:47.527Z,19.82
2022-08-09T06:16:16.311Z,19.99
2022-08-09T06:18:44.260Z,20.10
2022-08-09T06:21:16.326Z,20.13
2022-08-09T06:23:58.820Z,20.26
2022-08-09T06:26:29.957Z,20.22
2022-08-09T06:29:05.221Z,20.26
2022-08-09T06:31:39.666Z,20.35
2022-08-09T06:34:22.550Z,20.48
2022-08-09T06:36:57.274Z,20.55
2022-08-09T06:39:38.693Z,20.54
2022-08-09T06:42:15.183Z,20.68
2022-08-09T06:44:43.376Z,20.80
2022-08-09T06:47:11.651Z,20.89
2022-08-09T06:50:11.252Z,20.94
2022-08-09T06:52:30.167Z,20.85
2022-08-09T06:54:58.231Z,21.02
2022-08-09T06:58:01.336Z,21.06
2022-08-09T07:00:51.716Z,21.29
2022-08-09T07:03:05.395Z,21.41
2022-08-09T07:05:58.570Z,21.44
2022-08-09T07:08:24.704Z,21.52
2022-08-09T07:10:53.201Z,21.64
2022-08-09T07:13:28.016Z,21.68
2022-08-09T07:16:41.286Z,21.79
2022-08-09T07:18:47.458Z,21.90
2022-08-09T07:21:18.201Z,21.96
2022-08-09T07:23:57.794Z,21.99
2022-08-09T07:26:26.024Z,22.28
2022-08-09T07:29:09.162Z,22.26
2022-08-09T07:31:45.347Z,22.52
2022-08-09T07:34:20.286Z,22.54
2022-08-09T07:36:49.367Z,22.56
2022-08-09T07:39:20.596Z,22.81
2022-08-09T07:42:07.317Z,22.80
2022-08-09T07:44:51.882Z,22.73
2022-08-09T07:47:21.775Z,22.86
2022-08-09T07:50:05.335Z,22.95
2022-08-09T07:52:36.674Z,23.03
2022-08-09T07:55:09.788Z,23.12
2022-08-09T07:57:37.925Z,23.10
2022-08-09T08:00:20.865Z,22.95
2022-08-09T08:03:05.108Z,23.17
2022-08-09T08:05:39.102Z,22.99
2022-08-09T08:09:00.594Z,23.17
2022-08-09T08:12:10.577Z,23.21
2022-08-09T08:13:59.824Z,23.31
2022-08-09T08:16:29.617Z,23.50
2022-08-09T08:19:02.773Z,23.75
2022-08-09T08:21:31.664Z,23.66
2022-08-09T08:24:01.066Z,23.59
2022-08-09T08:26:42.086Z,23.82
2022-08-09T08:29:20.019Z,23.93
2022-08-09T08:32:03.737Z,23.74
2022-08-09T08:34:34.322Z,24.04
2022-08-09T08:37:02.874Z,24.04
2022-08-09T08:39:38.229Z,24.31
2022-08-09T08:42:13.920Z,24.65
2022-08-09T08:44:44.854Z,24.41
2022-08-09T08:47:16.097Z,24.59
2022-08-09T08:49:47.970Z,24.57
2022-08-09T08:52:52.593Z,24.25
2022-08-09T08:55:06.333Z,24.29
2022-08-09T08:57:37.494Z,24.70
2022-08-09T09:00:20.457Z,24.64
2022-08-09T09:03:03.028Z,24.41
2022-08-09T09:06:00.998Z,24.72
2022-08-09T09:08:30.388Z,24.91
2022-08-09T09:11:02.509Z,24.92
2022-08-09T09:13:41.684Z,24.64
2022-08-09T09:16:30.404Z,24.77
2022-08-09T09:19:22.549Z,25.07
2022-08-09T09:22:03.986Z,25.02
2022-08-09T09:24:35.084Z,25.26
2022-08-09T09:27:07.053Z,25.10
2022-08-09T09:30:10.679Z,25.46
2022-08-09T09:32:32.250Z,25.83
2022-08-09T09:35:09.454Z,26.01
2022-08-09T09:37:40.207Z,25.82
2022-08-09T09:40:11.877Z,25.84
2022-08-09T09:42:46.112Z,26.09
2022-08-09T09:45:26.366Z,26.06
2022-08-09T09:47:59.068Z,25.91
2022-08-09T09:50:49.721Z,26.09
2022-08-09T09:53:21.274Z,26.06
2022-08-09T09:56:05.311Z,26.21
2022-08-09T09:58:46.291Z,26.40
2022-08-09T10:01:31.477Z,26.33
2022-08-09T10:04:09.649Z,26.48
2022-08-09T10:06:43.032Z,26.84
2022-08-09T10:09:22.751Z,26.94
2022-08-09T10:12:07.772Z,27.15
2022-08-09T10:14:48.228Z,26.90
2022-08-09T10:17:54.984Z,27.29
2022-08-09T10:20:27.684Z,27.36
2022-08-09T10:23:17.436Z,27.46
2022-08-09T10:26:07.755Z,27.15
2022-08-09T10:28:37.536Z,27.55
2022-08-09T10:34:10.874Z,27.82
2022-08-09T10:36:43.672Z,27.79
2022-08-09T10:39:15.780Z,27.64
2022-08-09T10:41:45.992Z,27.71
2022-08-09T10:44:18.837Z,27.92
2022-08-09T10:48:12.447Z,27.91
2022-08-09T10:50:05.727Z,27.88
2022-08-09T10:52:53.451Z,28.03
2022-08-09T10:55:22.807Z,28.21
2022-08-09T10:57:51.709Z,28.11
2022-08-09T11:01:10.865Z,28.32
2022-08-09T11:03:50.042Z,28.32
2022-08-09T11:06:26.093Z,28.68
2022-08-09T11:08:54.954Z,28.74
2022-08-09T11:12:10.407Z,28.36
2022-08-09T11:14:41.821Z,27.80
2022-08-09T11:17:53.313Z,28.03
2022-08-09T11:20:41.568Z,27.94
2022-08-09T11:23:13.644Z,28.27
2022-08-09T11:25:48.380Z,28.23
2022-08-09T11:28:56.154Z,28.55
2022-08-09T11:31:49.488Z,28.32
2022-08-09T11:34:32.101Z,28.38
2022-08-09T11:37:01.506Z,28.33
2022-08-09T11:39:37.895Z,28.67
2022-08-09T11:42:14.906Z,28.85
2022-08-09T11:44:46.688Z,28.92
2022-08-09T11:47:15.223Z,28.96
2022-08-09T11:50:54.378Z,28.69
2022-08-09T11:53:59.154Z,28.93
2022-08-09T11:56:42.209Z,28.84
2022-08-09T11:59:30.271Z,29.03
2022-08-09T12:02:17.451Z,28.92
2022-08-09T12:04:47.415Z,28.86
2022-08-09T12:07:18.623Z,28.90
2022-08-09T12:09:50.982Z,29.06
2022-08-09T12:12:29.148Z,29.17
2022-08-09T12:15:08.244Z,29.16
2022-08-09T12:17:44.610Z,28.99
2022-08-09T12:20:21.830Z,29.09
2022-08-09T12:22:51.552Z,29.07
2022-08-09T12:25:31.963Z,29.34
2022-08-09T12:28:59.035Z,29.29
2022-08-09T12:31:01.623Z,29.35
2022-08-09T12:33:51.038Z,29.45
2022-08-09T12:36:31.347Z,29.41
2022-08-09T12:39:02.281Z,29.58
2022-08-09T12:41:38.231Z,29.44
2022-08-09T12:44:09.694Z,29.49
2022-08-09T12:46:38.496Z,29.70
2022-08-09T12:49:07.377Z,29.83
2022-08-09T12:51:59.976Z,30.08
2022-08-09T12:54:24.456Z,29.88
2022-08-09T12:56:54.662Z,29.99
2022-08-09T12:59:24.986Z,29.41
2022-08-09T13:02:12.884Z,29.54
2022-08-09T13:04:43.315Z,29.54
2022-08-09T13:07:16.318Z,29.65
2022-08-09T13:09:52.782Z,29.68
2022-08-09T13:12:24.316Z,29.89
2022-08-09T13:14:55.172Z,30.06
2022-08-09T13:18:02.465Z,30.21
2022-08-09T13:20:16.204Z,30.24
2022-08-09T13:23:01.389Z,30.20
2022-08-09T13:25:42.029Z,30.12
2022-08-09T13:28:18.848Z,29.86
2022-08-09T13:32:09.870Z,30.07
2022-08-09T13:33:57.300Z,30.34
2022-08-09T13:36:40.246Z,30.06
2022-08-09T13:41:54.354Z,29.95
2022-08-09T13:42:02.146Z,30.37
2022-08-09T13:44:30.719Z,29.62
2022-08-09T13:47:28.788Z,29.87
2022-08-09T13:49:56.065Z,29.93
2022-08-09T13:52:25.026Z,30.12
2022-08-09T13:54:59.314Z,30.19
2022-08-09T13:57:36.596Z,30.21
2022-08-09T14:00:12.172Z,30.09
2022-08-09T14:03:02.273Z,30.30
2022-08-09T14:06:01.121Z,30.13
2022-08-09T14:08:18.218Z,30.22
2022-08-09T14:10:52.537Z,30.09
2022-08-09T14:13:27.836Z,30.33
2022-08-09T14:16:13.905Z,30.39
2022-08-09T14:18:46.035Z,30.32
2022-08-09T14:21:18.473Z,30.41
2022-08-09T14:23:55.175Z,30.62
2022-08-09T14:26:25.205Z,30.27
2022-08-09T14:28:53.198Z,29.93
2022-08-09T14:31:23.680Z,29.59
2022-08-09T14:34:10.093Z,29.65
2022-08-09T14:36:39.885Z,29.72
2022-08-09T14:39:11.090Z,29.73
2022-08-09T14:41:40.468Z,30.01
2022-08-09T14:44:11.296Z,29.77
2022-08-09T14:47:04.798Z,29.70
2022-08-09T14:49:29.571Z,29.98
2022-08-09T14:52:02.379Z,29.99
2022-08-09T14:54:30.349Z,30.37
2022-08-09T14:57:01.635Z,30.21
2022-08-09T14:59:31.204Z,30.14
2022-08-09T15:02:06.439Z,30.05
2022-08-09T15:04:38.058Z,29.87
2022-08-09T15:07:06.041Z,30.06
2022-08-09T15:10:03.603Z,30.39
2022-08-09T15:12:25.764Z,29.94
2022-08-09T15:14:55.369Z,29.86
2022-08-09T15:17:23.230Z,29.92
2022-08-09T15:20:02.229Z,29.89
2022-08-09T15:22:30.671Z,29.90
2022-08-09T15:25:00.805Z,29.81
2022-08-09T15:27:47.821Z,29.69
2022-08-09T15:30:58.790Z,29.54
2022-08-09T15:33:07.543Z,29.52
2022-08-09T15:35:43.984Z,29.53
2022-08-09T15:38:12.489Z,29.60
2022-08-09T15:40:43.660Z,29.75
2022-08-09T15:43:13.304Z,29.85
2022-08-09T15:46:08.027Z,29.54
2022-08-09T15:48:30.662Z,29.67
2022-08-09T15:51:01.918Z,29.72
2022-08-09T15:54:03.560Z,29.27
2022-08-09T15:56:29.464Z,29.45
2022-08-09T15:58:59.445Z,29.62
2022-08-09T16:01:27.369Z,29.51
2022-08-09T16:03:59.335Z,29.65
2022-08-09T16:06:35.435Z,29.67
2022-08-09T16:09:05.792Z,29.59
2022-08-09T16:11:33.882Z,29.50
2022-08-09T16:14:06.967Z,29.42
2022-08-09T16:16:37.350Z,29.56
2022-08-09T16:19:05.976Z,29.41
2022-08-09T16:21:36.750Z,29.51
2022-08-09T16:24:05.081Z,29.58
2022-08-09T16:26:36.968Z,29.64
2022-08-09T16:29:11.166Z,29.73
2022-08-09T16:32:19.422Z,29.52
2022-08-09T16:34:28.977Z,29.58
2022-08-09T16:36:58.203Z,29.57
2022-08-09T16:39:26.353Z,29.47
2022-08-09T16:42:03.934Z,29.19
2022-08-09T16:44:32.626Z,29.13
2022-08-09T16:47:01.952Z,29.16
2022-08-09T16:50:32.071Z,29.12
2022-08-09T16:52:37.422Z,29.19
2022-08-09T16:55:08.096Z,28.98
2022-08-09T16:58:08.733Z,29.01
2022-08-09T17:00:28.645Z,28.94
2022-08-09T17:02:58.382Z,28.89
2022-08-09T17:06:02.730Z,28.85
2022-08-09T17:08:45.942Z,28.99
2022-08-09T17:11:03.013Z,28.81
2022-08-09T17:13:34.342Z,28.56
2022-08-09T17:16:02.673Z,28.54
2022-08-09T17:18:30.799Z,28.38
2022-08-09T17:20:58.623Z,28.35
2022-08-09T17:23:36.989Z,28.40
2022-08-09T17:26:17.642Z,28.46
2022-08-09T17:28:59.916Z,28.40
2022-08-09T17:31:29.906Z,28.39
2022-08-09T17:34:06.735Z,28.29
2022-08-09T17:36:54.501Z,28.33
2022-08-09T17:39:24.990Z,28.26
2022-08-09T17:41:53.053Z,28.16
2022-08-09T17:44:38.641Z,28.16
2022-08-09T17:47:10.658Z,28.17
2022-08-09T17:49:52.382Z,28.02
2022-08-09T17:52:26.690Z,28.02
2022-08-09T17:54:56.180Z,27.94
2022-08-09T17:58:03.204Z,27.88
2022-08-09T18:00:13.618Z,27.76
2022-08-09T18:02:41.821Z,27.63
2022-08-09T18:05:29.254Z,27.72
2022-08-09T18:08:11.237Z,27.60
2022-08-09T18:10:46.026Z,27.50
2022-08-09T18:13:40.945Z,27.62
2022-08-09T18:16:16.790Z,27.47
2022-08-09T18:18:49.103Z,27.45
2022-08-09T18:21:23.486Z,27.23
2022-08-09T18:24:11.630Z,27.25
2022-08-09T18:26:46.917Z,27.23
2022-08-09T18:30:42.194Z,27.18
2022-08-09T18:32:04.031Z,27.03
2022-08-09T18:34:35.194Z,26.83
2022-08-09T18:37:03.765Z,26.80
2022-08-09T18:39:32.253Z,26.90
2022-08-09T18:42:08.126Z,26.63
2022-08-09T18:44:36.903Z,26.53
2022-08-09T18:47:09.928Z,26.47
2022-08-09T18:49:46.942Z,26.44
2022-08-09T18:52:18.822Z,26.43
2022-08-09T18:54:56.374Z,26.39
2022-08-09T18:57:38.569Z,26.37
2022-08-09T19:00:12.072Z,26.25
2022-08-09T19:02:47.077Z,26.32
2022-08-09T19:05:28.132Z,26.05
2022-08-09T19:08:09.503Z,26.07
2022-08-09T19:10:39.543Z,25.95
2022-08-09T19:13:19.279Z,25.92
2022-08-09T19:15:51.806Z,25.88
2022-08-09T19:18:35.175Z,25.78
2022-08-09T19:21:08.788Z,25.75
2022-08-09T19:24:35.612Z,25.74
2022-08-09T19:26:31.522Z,25.57
2022-08-09T19:29:03.369Z,25.58
2022-08-09T19:31:45.768Z,25.33
2022-08-09T19:34:18.331Z,25.33
2022-08-09T19:36:51.778Z,25.20
2022-08-09T19:39:20.643Z,25.26
2022-08-09T19:41:57.455Z,25.11
2022-08-09T19:44:29.529Z,24.95
2022-08-09T19:46:57.549Z,25.08
2022-08-09T19:50:09.151Z,25.02
2022-08-09T19:52:13.157Z,25.08
2022-08-09T19:54:41.968Z,24.88
2022-08-09T19:57:10.084Z,24.88
2022-08-09T20:00:06.490Z,24.94
2022-08-09T20:04:18.308Z,24.79
2022-08-09T20:05:16.465Z,24.66
2022-08-09T20:07:58.969Z,24.60
2022-08-09T20:10:34.436Z,24.61
2022-08-09T20:13:05.384Z,24.42
2022-08-09T20:16:33.948Z,24.29
2022-08-09T20:18:23.114Z,24.29
2022-08-09T20:20:56.115Z,24.19
2022-08-09T20:23:25.504Z,24.29
2022-08-09T20:26:07.282Z,24.07
2022-08-09T20:28:47.721Z,23.97
2022-08-09T20:31:19.336Z,23.86
2022-08-09T20:33:52.530Z,23.90
2022-08-09T20:36:27.250Z,23.77
2022-08-09T20:40:13.467Z,23.60
2022-08-09T20:41:44.000Z,23.81
2022-08-09T20:44:14.293Z,23.71
2022-08-09T20:46:44.497Z,23.73
2022-08-09T20:49:13.675Z,23.69
2022-08-09T20:51:42.363Z,23.71
2022-08-09T20:54:12.445Z,23.55
2022-08-09T20:56:41.193Z,23.52
2022-08-09T20:59:09.998Z,23.62
2022-08-09T21:01:50.557Z,23.51
2022-08-09T21:05:53.444Z,23.32
2022-08-09T21:07:13.066Z,23.38
2022-08-09T21:09:45.876Z,23.25
2022-08-09T21:15:23.779Z,23.11
2022-08-09T21:18:23.237Z,23.19
2022-08-09T21:20:54.586Z,23.24
2022-08-09T21:23:26.303Z,23.12
2022-08-09T21:26:11.591Z,23.10
2022-08-09T21:28:39.699Z,23.11
2022-08-09T21:31:23.823Z,23.01
2022-08-09T21:33:53.021Z,23.12
2022-08-09T21:36:28.713Z,23.04
2022-08-09T21:38:59.232Z,23.01
2022-08-09T21:42:04.738Z,23.10
2022-08-09T21:44:33.000Z,23.00
2022-08-09T21:47:03.021Z,22.97
2022-08-09T21:49:39.160Z,22.94
2022-08-09T21:52:16.314Z,22.86
2022-08-09T21:54:50.631Z,22.83
2022-08-09T21:57:38.712Z,22.96
2022-08-09T22:00:17.753Z,22.85
2022-08-09T22:02:58.285Z,22.82
2022-08-09T22:05:35.886Z,22.68
2022-08-09T22:08:12.907Z,22.73
2022-08-09T22:11:04.861Z,22.79
2022-08-09T22:13:31.530Z,22.69
2022-08-09T22:16:03.701Z,22.74
2022-08-09T22:18:32.938Z,22.67
2022-08-09T22:21:01.193Z,22.61
2022-08-09T22:23:35.207Z,22.70
2022-08-09T22:26:06.492Z,22.45
2022-08-09T22:28:36.598Z,22.48
2022-08-09T22:31:15.744Z,22.44
2022-08-09T22:33:48.958Z,22.44
2022-08-09T22:36:19.230Z,22.40
2022-08-09T22:38:49.068Z,22.34
2022-08-09T22:41:17.295Z,22.24
2022-08-09T22:44:02.276Z,22.34
2022-08-09T22:48:13.940Z,22.23
2022-08-09T22:49:19.970Z,22.18
2022-08-09T22:51:49.894Z,22.21
2022-08-09T22:54:27.537Z,22.18
2022-08-09T22:56:57.042Z,22.13
2022-08-09T22:59:58.468Z,22.06
2022-08-09T23:02:15.028Z,21.98
2022-08-09T23:04:54.014Z,21.85
2022-08-09T23:08:22.887Z,21.77
2022-08-09T23:10:30.422Z,21.88
2022-08-09T23:12:58.265Z,21.99
2022-08-09T23:15:26.053Z,21.82
2022-08-09T23:17:53.687Z,21.76
2022-08-09T23:20:21.507Z,21.74
2022-08-09T23:22:49.340Z,21.74
2022-08-09T23:25:16.981Z,21.72
2022-08-09T23:27:59.638Z,21.78
2022-08-09T23:30:33.740Z,21.81
2022-08-09T23:33:01.341Z,21.69
2022-08-09T23:35:29.077Z,21.66
2022-08-09T23:37:56.739Z,21.54
2022-08-09T23:40:24.353Z,21.62
2022-08-09T23:42:53.290Z,21.59
2022-08-09T23:45:37.206Z,21.74
2022-08-09T23:48:08.983Z,21.46
2022-08-09T23:50:37.346Z,21.37
2022-08-09T23:53:05.544Z,21.45
2022-08-09T23:55:37.810Z,21.47
2022-08-09T23:58:25.501Z,21.43
